sensor_id;sensor_type;location;lat;lon;timestamp;temperature;humidity
7666;DHT22;3875;46.562;4.898;2022-07-21T00:00:44;22.40;75.60
7666;DHT22;3875;46.562;4.898;2022-07-21T00:03:10;22.30;75.70
7666;DHT22;3875;46.562;4.898;2022-07-21T00:05:35;22.20;75.90
7666;DHT22;3875;46.562;4.898;2022-07-21T00:08:01;22.00;76.50
7666;DHT22;3875;46.562;4.898;2022-07-21T00:10:27;21.90;76.80
7666;DHT22;3875;46.562;4.898;2022-07-21T00:12:53;21.80;77.10
7666;DHT22;3875;46.562;4.898;2022-07-21T00:15:21;21.80;76.90
7666;DHT22;3875;46.562;4.898;2022-07-21T00:17:47;21.80;77.10
7666;DHT22;3875;46.562;4.898;2022-07-21T00:20:15;21.70;77.10
7666;DHT22;3875;46.562;4.898;2022-07-21T00:22:41;21.70;77.20
7666;DHT22;3875;46.562;4.898;2022-07-21T00:25:08;21.60;77.20
7666;DHT22;3875;46.562;4.898;2022-07-21T00:27:34;21.60;77.30
7666;DHT22;3875;46.562;4.898;2022-07-21T00:30:00;21.40;77.90
7666;DHT22;3875;46.562;4.898;2022-07-21T00:32:26;21.30;78.30
7666;DHT22;3875;46.562;4.898;2022-07-21T00:34:52;21.20;78.30
7666;DHT22;3875;46.562;4.898;2022-07-21T00:37:18;21.20;78.40
7666;DHT22;3875;46.562;4.898;2022-07-21T00:39:43;21.30;78.10
7666;DHT22;3875;46.562;4.898;2022-07-21T00:42:20;21.30;78.00
7666;DHT22;3875;46.562;4.898;2022-07-21T00:44:46;21.40;77.90
7666;DHT22;3875;46.562;4.898;2022-07-21T00:47:12;21.40;77.70
7666;DHT22;3875;46.562;4.898;2022-07-21T00:49:37;21.50;77.50
7666;DHT22;3875;46.562;4.898;2022-07-21T00:52:03;21.60;77.50
7666;DHT22;3875;46.562;4.898;2022-07-21T00:54:29;21.60;77.50
7666;DHT22;3875;46.562;4.898;2022-07-21T00:56:55;21.70;77.50
7666;DHT22;3875;46.562;4.898;2022-07-21T00:59:21;21.70;77.30
7666;DHT22;3875;46.562;4.898;2022-07-21T01:01:46;21.70;77.20
7666;DHT22;3875;46.562;4.898;2022-07-21T01:04:12;21.60;77.30
7666;DHT22;3875;46.562;4.898;2022-07-21T01:06:38;21.60;77.50
7666;DHT22;3875;46.562;4.898;2022-07-21T01:09:03;21.60;77.40
7666;DHT22;3875;46.562;4.898;2022-07-21T01:11:30;21.60;77.30
7666;DHT22;3875;46.562;4.898;2022-07-21T01:13:56;21.60;77.30
7666;DHT22;3875;46.562;4.898;2022-07-21T01:16:22;21.60;77.20
7666;DHT22;3875;46.562;4.898;2022-07-21T01:18:48;21.60;77.20
7666;DHT22;3875;46.562;4.898;2022-07-21T01:21:35;21.50;77.20
7666;DHT22;3875;46.562;4.898;2022-07-21T01:24:02;21.50;77.20
7666;DHT22;3875;46.562;4.898;2022-07-21T01:26:28;21.50;77.20
7666;DHT22;3875;46.562;4.898;2022-07-21T01:28:55;21.50;77.20
7666;DHT22;3875;46.562;4.898;2022-07-21T01:31:21;21.50;77.20
7666;DHT22;3875;46.562;4.898;2022-07-21T01:33:47;21.50;77.20
7666;DHT22;3875;46.562;4.898;2022-07-21T01:36:13;21.50;77.10
7666;DHT22;3875;46.562;4.898;2022-07-21T01:38:38;21.50;77.00
7666;DHT22;3875;46.562;4.898;2022-07-21T01:41:23;21.40;77.30
7666;DHT22;3875;46.562;4.898;2022-07-21T01:43:55;21.40;77.20
7666;DHT22;3875;46.562;4.898;2022-07-21T01:46:21;21.30;77.30
7666;DHT22;3875;46.562;4.898;2022-07-21T01:48:47;21.30;77.60
7666;DHT22;3875;46.562;4.898;2022-07-21T01:51:13;21.20;77.50
7666;DHT22;3875;46.562;4.898;2022-07-21T01:53:39;21.20;77.80
7666;DHT22;3875;46.562;4.898;2022-07-21T01:56:05;21.20;77.90
7666;DHT22;3875;46.562;4.898;2022-07-21T01:58:31;21.10;77.70
7666;DHT22;3875;46.562;4.898;2022-07-21T02:00:57;21.00;78.10
7666;DHT22;3875;46.562;4.898;2022-07-21T02:03:23;21.00;78.20
7666;DHT22;3875;46.562;4.898;2022-07-21T02:05:49;21.00;78.30
7666;DHT22;3875;46.562;4.898;2022-07-21T02:08:15;21.00;78.30
7666;DHT22;3875;46.562;4.898;2022-07-21T02:10:40;21.00;78.20
7666;DHT22;3875;46.562;4.898;2022-07-21T02:13:06;21.00;78.20
7666;DHT22;3875;46.562;4.898;2022-07-21T02:15:32;20.90;78.30
7666;DHT22;3875;46.562;4.898;2022-07-21T02:17:58;20.90;78.40
7666;DHT22;3875;46.562;4.898;2022-07-21T02:20:24;20.90;78.40
7666;DHT22;3875;46.562;4.898;2022-07-21T02:22:50;20.90;78.40
7666;DHT22;3875;46.562;4.898;2022-07-21T02:25:16;20.90;78.50
7666;DHT22;3875;46.562;4.898;2022-07-21T02:27:44;20.90;78.50
7666;DHT22;3875;46.562;4.898;2022-07-21T02:30:11;20.80;78.50
7666;DHT22;3875;46.562;4.898;2022-07-21T02:32:37;20.80;78.50
7666;DHT22;3875;46.562;4.898;2022-07-21T02:35:03;20.70;78.60
7666;DHT22;3875;46.562;4.898;2022-07-21T02:37:29;20.70;78.70
7666;DHT22;3875;46.562;4.898;2022-07-21T02:39:55;20.70;78.80
7666;DHT22;3875;46.562;4.898;2022-07-21T02:42:20;20.60;78.80
7666;DHT22;3875;46.562;4.898;2022-07-21T02:44:46;20.60;78.70
7666;DHT22;3875;46.562;4.898;2022-07-21T02:47:12;20.60;78.70
7666;DHT22;3875;46.562;4.898;2022-07-21T02:49:37;20.50;78.70
7666;DHT22;3875;46.562;4.898;2022-07-21T02:52:04;20.40;79.00
7666;DHT22;3875;46.562;4.898;2022-07-21T02:54:30;20.30;79.40
7666;DHT22;3875;46.562;4.898;2022-07-21T02:56:56;20.20;79.70
7666;DHT22;3875;46.562;4.898;2022-07-21T02:59:22;20.10;80.20
7666;DHT22;3875;46.562;4.898;2022-07-21T03:01:48;20.10;80.10
7666;DHT22;3875;46.562;4.898;2022-07-21T03:04:14;20.10;80.00
7666;DHT22;3875;46.562;4.898;2022-07-21T03:06:39;20.10;79.90
7666;DHT22;3875;46.562;4.898;2022-07-21T03:09:05;20.00;80.20
7666;DHT22;3875;46.562;4.898;2022-07-21T03:11:31;19.80;80.50
7666;DHT22;3875;46.562;4.898;2022-07-21T03:13:57;19.80;80.70
7666;DHT22;3875;46.562;4.898;2022-07-21T03:16:22;19.70;81.20
7666;DHT22;3875;46.562;4.898;2022-07-21T03:18:48;19.60;81.50
7666;DHT22;3875;46.562;4.898;2022-07-21T03:21:14;19.50;81.60
7666;DHT22;3875;46.562;4.898;2022-07-21T03:23:39;19.50;81.90
7666;DHT22;3875;46.562;4.898;2022-07-21T03:26:14;19.50;81.90
7666;DHT22;3875;46.562;4.898;2022-07-21T03:28:41;19.50;82.00
7666;DHT22;3875;46.562;4.898;2022-07-21T03:31:07;19.60;81.80
7666;DHT22;3875;46.562;4.898;2022-07-21T03:33:33;19.70;81.50
7666;DHT22;3875;46.562;4.898;2022-07-21T03:35:59;19.80;81.20
7666;DHT22;3875;46.562;4.898;2022-07-21T03:38:25;19.80;81.00
7666;DHT22;3875;46.562;4.898;2022-07-21T03:40:52;19.90;80.80
7666;DHT22;3875;46.562;4.898;2022-07-21T03:43:18;19.90;80.80
7666;DHT22;3875;46.562;4.898;2022-07-21T03:45:43;19.90;80.60
7666;DHT22;3875;46.562;4.898;2022-07-21T03:48:10;19.90;80.70
7666;DHT22;3875;46.562;4.898;2022-07-21T03:50:38;19.70;81.50
7666;DHT22;3875;46.562;4.898;2022-07-21T03:53:06;19.60;81.60
7666;DHT22;3875;46.562;4.898;2022-07-21T03:55:32;19.50;81.80
7666;DHT22;3875;46.562;4.898;2022-07-21T03:58:04;19.50;81.90
7666;DHT22;3875;46.562;4.898;2022-07-21T04:00:34;19.40;82.30
7666;DHT22;3875;46.562;4.898;2022-07-21T04:03:01;19.40;82.30
7666;DHT22;3875;46.562;4.898;2022-07-21T04:05:27;19.40;82.70
7666;DHT22;3875;46.562;4.898;2022-07-21T04:07:54;19.30;82.90
7666;DHT22;3875;46.562;4.898;2022-07-21T04:10:23;19.40;83.00
7666;DHT22;3875;46.562;4.898;2022-07-21T04:12:53;19.50;82.80
7666;DHT22;3875;46.562;4.898;2022-07-21T04:15:19;19.50;82.60
7666;DHT22;3875;46.562;4.898;2022-07-21T04:17:45;19.60;82.50
7666;DHT22;3875;46.562;4.898;2022-07-21T04:20:13;19.60;82.50
7666;DHT22;3875;46.562;4.898;2022-07-21T04:22:40;19.70;82.40
7666;DHT22;3875;46.562;4.898;2022-07-21T04:25:07;19.80;82.20
7666;DHT22;3875;46.562;4.898;2022-07-21T04:27:34;19.80;81.80
7666;DHT22;3875;46.562;4.898;2022-07-21T04:30:00;19.90;81.70
7666;DHT22;3875;46.562;4.898;2022-07-21T04:32:26;20.00;81.60
7666;DHT22;3875;46.562;4.898;2022-07-21T04:34:52;20.10;81.50
7666;DHT22;3875;46.562;4.898;2022-07-21T04:37:17;20.20;81.30
7666;DHT22;3875;46.562;4.898;2022-07-21T04:39:43;20.30;81.00
7666;DHT22;3875;46.562;4.898;2022-07-21T04:42:09;20.40;80.90
7666;DHT22;3875;46.562;4.898;2022-07-21T04:44:35;20.50;80.80
7666;DHT22;3875;46.562;4.898;2022-07-21T04:47:00;20.60;80.70
7666;DHT22;3875;46.562;4.898;2022-07-21T04:49:26;20.70;80.50
7666;DHT22;3875;46.562;4.898;2022-07-21T04:51:52;20.80;80.40
7666;DHT22;3875;46.562;4.898;2022-07-21T04:54:17;20.90;80.30
7666;DHT22;3875;46.562;4.898;2022-07-21T04:56:44;20.90;80.20
7666;DHT22;3875;46.562;4.898;2022-07-21T04:59:10;21.00;79.90
7666;DHT22;3875;46.562;4.898;2022-07-21T05:01:37;21.10;79.70
7666;DHT22;3875;46.562;4.898;2022-07-21T05:04:04;21.20;79.50
7666;DHT22;3875;46.562;4.898;2022-07-21T05:06:30;21.30;79.20
7666;DHT22;3875;46.562;4.898;2022-07-21T05:08:56;21.40;79.10
7666;DHT22;3875;46.562;4.898;2022-07-21T05:11:22;21.40;78.90
7666;DHT22;3875;46.562;4.898;2022-07-21T05:13:48;21.50;78.90
7666;DHT22;3875;46.562;4.898;2022-07-21T05:16:13;21.40;79.30
7666;DHT22;3875;46.562;4.898;2022-07-21T05:18:39;21.30;79.70
7666;DHT22;3875;46.562;4.898;2022-07-21T05:21:05;21.30;79.70
7666;DHT22;3875;46.562;4.898;2022-07-21T05:23:31;21.40;79.70
7666;DHT22;3875;46.562;4.898;2022-07-21T05:25:56;21.50;79.50
7666;DHT22;3875;46.562;4.898;2022-07-21T05:28:22;21.40;79.80
7666;DHT22;3875;46.562;4.898;2022-07-21T05:30:48;21.40;80.00
7666;DHT22;3875;46.562;4.898;2022-07-21T05:33:13;21.40;80.10
7666;DHT22;3875;46.562;4.898;2022-07-21T05:35:39;21.40;79.80
7666;DHT22;3875;46.562;4.898;2022-07-21T05:38:04;21.40;80.30
7666;DHT22;3875;46.562;4.898;2022-07-21T05:40:30;21.30;80.60
7666;DHT22;3875;46.562;4.898;2022-07-21T05:42:56;21.40;80.80
7666;DHT22;3875;46.562;4.898;2022-07-21T05:45:22;21.40;80.80
7666;DHT22;3875;46.562;4.898;2022-07-21T05:47:48;21.50;80.40
7666;DHT22;3875;46.562;4.898;2022-07-21T05:50:13;21.70;80.10
7666;DHT22;3875;46.562;4.898;2022-07-21T05:52:39;21.80;79.60
7666;DHT22;3875;46.562;4.898;2022-07-21T05:55:05;21.80;79.70
7666;DHT22;3875;46.562;4.898;2022-07-21T05:57:32;21.80;80.00
7666;DHT22;3875;46.562;4.898;2022-07-21T05:59:57;21.80;79.70
7666;DHT22;3875;46.562;4.898;2022-07-21T06:02:24;22.00;79.30
7666;DHT22;3875;46.562;4.898;2022-07-21T06:04:50;22.20;78.90
7666;DHT22;3875;46.562;4.898;2022-07-21T06:07:16;22.40;78.40
7666;DHT22;3875;46.562;4.898;2022-07-21T06:09:42;22.50;78.20
7666;DHT22;3875;46.562;4.898;2022-07-21T06:12:08;22.60;78.00
7666;DHT22;3875;46.562;4.898;2022-07-21T06:14:33;22.70;77.60
7666;DHT22;3875;46.562;4.898;2022-07-21T06:16:59;22.80;77.20
7666;DHT22;3875;46.562;4.898;2022-07-21T06:19:25;22.80;77.10
7666;DHT22;3875;46.562;4.898;2022-07-21T06:21:51;22.90;77.00
7666;DHT22;3875;46.562;4.898;2022-07-21T06:24:16;23.00;76.80
7666;DHT22;3875;46.562;4.898;2022-07-21T06:26:45;23.30;76.50
7666;DHT22;3875;46.562;4.898;2022-07-21T06:29:11;23.40;75.80
7666;DHT22;3875;46.562;4.898;2022-07-21T06:31:37;23.40;76.00
7666;DHT22;3875;46.562;4.898;2022-07-21T06:34:03;23.50;76.00
7666;DHT22;3875;46.562;4.898;2022-07-21T06:36:28;23.50;75.90
7666;DHT22;3875;46.562;4.898;2022-07-21T06:38:54;23.60;76.00
7666;DHT22;3875;46.562;4.898;2022-07-21T06:41:20;23.50;75.50
7666;DHT22;3875;46.562;4.898;2022-07-21T06:43:45;23.60;75.90
7666;DHT22;3875;46.562;4.898;2022-07-21T06:46:11;23.70;75.90
7666;DHT22;3875;46.562;4.898;2022-07-21T06:48:37;23.80;75.10
7666;DHT22;3875;46.562;4.898;2022-07-21T06:51:03;23.80;75.00
7666;DHT22;3875;46.562;4.898;2022-07-21T06:53:29;23.90;74.70
7666;DHT22;3875;46.562;4.898;2022-07-21T06:55:54;23.80;74.50
7666;DHT22;3875;46.562;4.898;2022-07-21T06:58:23;23.80;74.80
7666;DHT22;3875;46.562;4.898;2022-07-21T07:00:50;23.90;74.80
7666;DHT22;3875;46.562;4.898;2022-07-21T07:03:17;23.80;74.50
7666;DHT22;3875;46.562;4.898;2022-07-21T07:05:44;23.80;74.90
7666;DHT22;3875;46.562;4.898;2022-07-21T07:08:11;23.90;74.90
7666;DHT22;3875;46.562;4.898;2022-07-21T07:10:37;24.20;74.10
7666;DHT22;3875;46.562;4.898;2022-07-21T07:13:03;24.50;73.90
7666;DHT22;3875;46.562;4.898;2022-07-21T07:15:29;24.60;73.70
7666;DHT22;3875;46.562;4.898;2022-07-21T07:17:55;24.70;73.40
7666;DHT22;3875;46.562;4.898;2022-07-21T07:20:21;24.70;73.30
7666;DHT22;3875;46.562;4.898;2022-07-21T07:22:48;24.80;72.90
7666;DHT22;3875;46.562;4.898;2022-07-21T07:25:14;25.10;72.90
7666;DHT22;3875;46.562;4.898;2022-07-21T07:27:48;25.10;72.30
7666;DHT22;3875;46.562;4.898;2022-07-21T07:30:15;25.20;71.70
7666;DHT22;3875;46.562;4.898;2022-07-21T07:32:41;25.20;71.90
7666;DHT22;3875;46.562;4.898;2022-07-21T07:35:11;25.20;71.90
7666;DHT22;3875;46.562;4.898;2022-07-21T07:37:39;25.40;72.20
7666;DHT22;3875;46.562;4.898;2022-07-21T07:40:08;25.60;71.70
7666;DHT22;3875;46.562;4.898;2022-07-21T07:42:35;25.90;70.90
7666;DHT22;3875;46.562;4.898;2022-07-21T07:45:01;25.70;70.50
7666;DHT22;3875;46.562;4.898;2022-07-21T07:47:27;25.80;70.90
7666;DHT22;3875;46.562;4.898;2022-07-21T07:49:53;25.80;71.10
7666;DHT22;3875;46.562;4.898;2022-07-21T07:52:20;26.20;70.60
7666;DHT22;3875;46.562;4.898;2022-07-21T07:54:46;26.40;70.00
7666;DHT22;3875;46.562;4.898;2022-07-21T07:57:11;26.80;70.00
7666;DHT22;3875;46.562;4.898;2022-07-21T07:59:37;26.90;68.90
7666;DHT22;3875;46.562;4.898;2022-07-21T08:02:03;27.10;68.80
7666;DHT22;3875;46.562;4.898;2022-07-21T08:04:29;27.30;68.40
7666;DHT22;3875;46.562;4.898;2022-07-21T08:06:55;27.40;68.30
7666;DHT22;3875;46.562;4.898;2022-07-21T08:09:20;27.60;67.70
7666;DHT22;3875;46.562;4.898;2022-07-21T08:11:47;27.90;67.40
7666;DHT22;3875;46.562;4.898;2022-07-21T08:14:14;28.10;67.10
7666;DHT22;3875;46.562;4.898;2022-07-21T08:16:40;28.20;66.20
7666;DHT22;3875;46.562;4.898;2022-07-21T08:19:06;28.20;66.20
7666;DHT22;3875;46.562;4.898;2022-07-21T08:21:32;28.10;65.70
7666;DHT22;3875;46.562;4.898;2022-07-21T08:24:02;28.30;66.10
7666;DHT22;3875;46.562;4.898;2022-07-21T08:26:28;28.30;65.10
7666;DHT22;3875;46.562;4.898;2022-07-21T08:28:55;28.50;65.60
7666;DHT22;3875;46.562;4.898;2022-07-21T08:31:21;28.70;65.20
7666;DHT22;3875;46.562;4.898;2022-07-21T08:33:47;28.90;65.10
7666;DHT22;3875;46.562;4.898;2022-07-21T08:36:13;29.10;64.80
7666;DHT22;3875;46.562;4.898;2022-07-21T08:38:39;29.20;64.00
7666;DHT22;3875;46.562;4.898;2022-07-21T08:41:05;29.30;62.90
7666;DHT22;3875;46.562;4.898;2022-07-21T08:43:34;29.30;63.50
7666;DHT22;3875;46.562;4.898;2022-07-21T08:46:00;29.50;63.10
7666;DHT22;3875;46.562;4.898;2022-07-21T08:48:27;29.80;63.20
7666;DHT22;3875;46.562;4.898;2022-07-21T08:50:55;30.00;62.70
7666;DHT22;3875;46.562;4.898;2022-07-21T08:53:20;29.70;62.30
7666;DHT22;3875;46.562;4.898;2022-07-21T08:55:46;29.70;62.40
7666;DHT22;3875;46.562;4.898;2022-07-21T08:58:13;29.90;62.40
7666;DHT22;3875;46.562;4.898;2022-07-21T09:00:42;30.20;61.90
7666;DHT22;3875;46.562;4.898;2022-07-21T09:03:16;30.40;61.20
7666;DHT22;3875;46.562;4.898;2022-07-21T09:08:41;31.00;60.20
7666;DHT22;3875;46.562;4.898;2022-07-21T09:11:09;31.20;59.30
7666;DHT22;3875;46.562;4.898;2022-07-21T09:13:35;31.30;58.90
7666;DHT22;3875;46.562;4.898;2022-07-21T09:16:01;31.50;58.30
7666;DHT22;3875;46.562;4.898;2022-07-21T09:18:26;31.60;57.70
7666;DHT22;3875;46.562;4.898;2022-07-21T09:20:53;31.80;58.30
7666;DHT22;3875;46.562;4.898;2022-07-21T09:23:21;32.00;56.70
7666;DHT22;3875;46.562;4.898;2022-07-21T09:25:53;32.10;57.00
7666;DHT22;3875;46.562;4.898;2022-07-21T09:28:24;32.40;56.10
7666;DHT22;3875;46.562;4.898;2022-07-21T09:31:01;31.80;56.20
7666;DHT22;3875;46.562;4.898;2022-07-21T09:33:33;31.10;57.60
7666;DHT22;3875;46.562;4.898;2022-07-21T09:36:07;31.00;57.80
7666;DHT22;3875;46.562;4.898;2022-07-21T09:38:44;30.90;58.20
7666;DHT22;3875;46.562;4.898;2022-07-21T09:41:15;30.20;58.10
7666;DHT22;3875;46.562;4.898;2022-07-21T09:46:13;29.60;60.20
7666;DHT22;3875;46.562;4.898;2022-07-21T09:48:40;30.30;59.20
7666;DHT22;3875;46.562;4.898;2022-07-21T09:51:24;31.00;57.60
7666;DHT22;3875;46.562;4.898;2022-07-21T09:56:24;31.90;56.00
7666;DHT22;3875;46.562;4.898;2022-07-21T09:58:53;32.30;55.20
7666;DHT22;3875;46.562;4.898;2022-07-21T10:01:20;32.60;55.20
7666;DHT22;3875;46.562;4.898;2022-07-21T10:03:47;32.60;54.40
7666;DHT22;3875;46.562;4.898;2022-07-21T10:06:15;32.90;54.60
7666;DHT22;3875;46.562;4.898;2022-07-21T10:08:42;33.10;54.00
7666;DHT22;3875;46.562;4.898;2022-07-21T10:11:09;33.30;54.00
7666;DHT22;3875;46.562;4.898;2022-07-21T10:13:36;32.90;53.10
7666;DHT22;3875;46.562;4.898;2022-07-21T10:16:03;33.00;53.30
7666;DHT22;3875;46.562;4.898;2022-07-21T10:18:32;33.10;53.10
7666;DHT22;3875;46.562;4.898;2022-07-21T10:21:10;33.20;53.50
7666;DHT22;3875;46.562;4.898;2022-07-21T10:23:43;33.10;53.60
7666;DHT22;3875;46.562;4.898;2022-07-21T10:26:11;33.00;53.90
7666;DHT22;3875;46.562;4.898;2022-07-21T10:28:37;32.70;53.20
7666;DHT22;3875;46.562;4.898;2022-07-21T10:36:10;33.60;52.40
7666;DHT22;3875;46.562;4.898;2022-07-21T10:38:37;33.90;52.20
7666;DHT22;3875;46.562;4.898;2022-07-21T10:41:04;33.70;51.50
7666;DHT22;3875;46.562;4.898;2022-07-21T10:45:58;34.40;51.40
7666;DHT22;3875;46.562;4.898;2022-07-21T10:51:14;34.40;49.90
7666;DHT22;3875;46.562;4.898;2022-07-21T10:53:41;34.30;49.80
7666;DHT22;3875;46.562;4.898;2022-07-21T10:56:07;34.30;50.50
7666;DHT22;3875;46.562;4.898;2022-07-21T10:58:40;34.60;49.60
7666;DHT22;3875;46.562;4.898;2022-07-21T11:03:45;34.80;49.90
7666;DHT22;3875;46.562;4.898;2022-07-21T11:06:22;35.10;49.90
7666;DHT22;3875;46.562;4.898;2022-07-21T11:11:29;35.00;49.50
7666;DHT22;3875;46.562;4.898;2022-07-21T11:19:43;35.30;49.30
7666;DHT22;3875;46.562;4.898;2022-07-21T11:22:16;35.40;48.60
7666;DHT22;3875;46.562;4.898;2022-07-21T11:27:18;35.30;48.80
7666;DHT22;3875;46.562;4.898;2022-07-21T11:29:46;35.60;49.00
7666;DHT22;3875;46.562;4.898;2022-07-21T11:32:13;35.60;49.00
7666;DHT22;3875;46.562;4.898;2022-07-21T11:37:12;35.80;48.60
7666;DHT22;3875;46.562;4.898;2022-07-21T11:39:38;35.80;48.00
7666;DHT22;3875;46.562;4.898;2022-07-21T11:42:11;35.90;48.40
7666;DHT22;3875;46.562;4.898;2022-07-21T11:44:37;35.50;47.90
7666;DHT22;3875;46.562;4.898;2022-07-21T11:47:05;35.20;49.50
7666;DHT22;3875;46.562;4.898;2022-07-21T11:49:32;35.70;49.40
7666;DHT22;3875;46.562;4.898;2022-07-21T11:52:01;35.90;48.60
7666;DHT22;3875;46.562;4.898;2022-07-21T11:54:44;36.20;47.50
7666;DHT22;3875;46.562;4.898;2022-07-21T11:57:12;36.40;48.00
7666;DHT22;3875;46.562;4.898;2022-07-21T11:59:39;36.60;47.00
7666;DHT22;3875;46.562;4.898;2022-07-21T12:04:44;36.30;47.00
7666;DHT22;3875;46.562;4.898;2022-07-21T12:07:28;35.90;47.00
7666;DHT22;3875;46.562;4.898;2022-07-21T12:09:59;35.70;48.20
7666;DHT22;3875;46.562;4.898;2022-07-21T12:12:32;35.90;48.60
7666;DHT22;3875;46.562;4.898;2022-07-21T12:15:19;36.30;48.40
7666;DHT22;3875;46.562;4.898;2022-07-21T12:17:53;36.10;48.10
7666;DHT22;3875;46.562;4.898;2022-07-21T12:20:34;36.30;48.50
7666;DHT22;3875;46.562;4.898;2022-07-21T12:23:02;36.50;47.50
7666;DHT22;3875;46.562;4.898;2022-07-21T12:25:31;36.30;47.70
7666;DHT22;3875;46.562;4.898;2022-07-21T12:27:58;36.10;48.10
7666;DHT22;3875;46.562;4.898;2022-07-21T12:33:14;36.60;47.90
7666;DHT22;3875;46.562;4.898;2022-07-21T12:35:45;36.80;48.00
7666;DHT22;3875;46.562;4.898;2022-07-21T12:38:15;37.10;47.00
7666;DHT22;3875;46.562;4.898;2022-07-21T12:40:47;37.30;46.70
7666;DHT22;3875;46.562;4.898;2022-07-21T12:43:18;37.10;46.60
7666;DHT22;3875;46.562;4.898;2022-07-21T12:46:14;37.10;45.90
7666;DHT22;3875;46.562;4.898;2022-07-21T12:48:41;36.60;46.20
7666;DHT22;3875;46.562;4.898;2022-07-21T12:51:15;36.10;47.30
7666;DHT22;3875;46.562;4.898;2022-07-21T12:53:51;36.10;47.30
7666;DHT22;3875;46.562;4.898;2022-07-21T12:56:19;36.20;47.10
7666;DHT22;3875;46.562;4.898;2022-07-21T12:58:46;36.40;47.10
7666;DHT22;3875;46.562;4.898;2022-07-21T13:01:13;36.50;47.50
7666;DHT22;3875;46.562;4.898;2022-07-21T13:03:39;36.80;47.30
7666;DHT22;3875;46.562;4.898;2022-07-21T13:06:06;36.60;47.10
7666;DHT22;3875;46.562;4.898;2022-07-21T13:08:32;36.60;47.50
7666;DHT22;3875;46.562;4.898;2022-07-21T13:10:58;36.80;47.40
7666;DHT22;3875;46.562;4.898;2022-07-21T13:13:25;37.20;46.20
7666;DHT22;3875;46.562;4.898;2022-07-21T13:15:51;37.40;46.20
7666;DHT22;3875;46.562;4.898;2022-07-21T13:18:16;37.40;46.20
7666;DHT22;3875;46.562;4.898;2022-07-21T13:20:42;37.10;46.20
7666;DHT22;3875;46.562;4.898;2022-07-21T13:23:08;37.10;46.10
7666;DHT22;3875;46.562;4.898;2022-07-21T13:25:34;37.00;46.80
7666;DHT22;3875;46.562;4.898;2022-07-21T13:28:01;37.30;46.10
7666;DHT22;3875;46.562;4.898;2022-07-21T13:30:27;37.30;46.30
7666;DHT22;3875;46.562;4.898;2022-07-21T13:32:53;36.90;46.40
7666;DHT22;3875;46.562;4.898;2022-07-21T13:35:19;36.70;46.40
7666;DHT22;3875;46.562;4.898;2022-07-21T13:37:44;36.40;47.00
7666;DHT22;3875;46.562;4.898;2022-07-21T13:40:10;36.50;45.30
7666;DHT22;3875;46.562;4.898;2022-07-21T13:42:36;36.30;46.30
7666;DHT22;3875;46.562;4.898;2022-07-21T13:45:03;36.20;46.00
7666;DHT22;3875;46.562;4.898;2022-07-21T13:47:29;35.90;46.40
7666;DHT22;3875;46.562;4.898;2022-07-21T13:49:54;35.60;46.50
7666;DHT22;3875;46.562;4.898;2022-07-21T13:52:20;35.70;46.50
7666;DHT22;3875;46.562;4.898;2022-07-21T13:54:46;35.50;47.00
7666;DHT22;3875;46.562;4.898;2022-07-21T13:57:12;35.30;46.80
7666;DHT22;3875;46.562;4.898;2022-07-21T13:59:37;35.10;47.70
7666;DHT22;3875;46.562;4.898;2022-07-21T14:02:03;35.30;46.80
7666;DHT22;3875;46.562;4.898;2022-07-21T14:04:29;35.20;47.00
7666;DHT22;3875;46.562;4.898;2022-07-21T14:06:55;35.40;47.20
7666;DHT22;3875;46.562;4.898;2022-07-21T14:09:21;35.50;47.10
7666;DHT22;3875;46.562;4.898;2022-07-21T14:11:48;35.60;47.10
7666;DHT22;3875;46.562;4.898;2022-07-21T14:14:14;35.30;47.50
7666;DHT22;3875;46.562;4.898;2022-07-21T14:16:46;35.00;48.00
7666;DHT22;3875;46.562;4.898;2022-07-21T14:19:12;34.90;48.40
7666;DHT22;3875;46.562;4.898;2022-07-21T14:21:38;35.10;48.00
7666;DHT22;3875;46.562;4.898;2022-07-21T14:24:04;35.10;47.80
7666;DHT22;3875;46.562;4.898;2022-07-21T14:26:48;34.60;48.10
7666;DHT22;3875;46.562;4.898;2022-07-21T14:29:14;34.50;48.20
7666;DHT22;3875;46.562;4.898;2022-07-21T14:31:40;34.10;48.80
7666;DHT22;3875;46.562;4.898;2022-07-21T14:34:05;33.80;49.40
7666;DHT22;3875;46.562;4.898;2022-07-21T14:36:31;33.60;49.30
7666;DHT22;3875;46.562;4.898;2022-07-21T14:38:57;33.80;49.60
7666;DHT22;3875;46.562;4.898;2022-07-21T14:41:22;34.20;49.40
7666;DHT22;3875;46.562;4.898;2022-07-21T14:43:48;34.30;48.70
7666;DHT22;3875;46.562;4.898;2022-07-21T14:46:15;34.30;48.70
7666;DHT22;3875;46.562;4.898;2022-07-21T14:48:40;34.10;48.10
7666;DHT22;3875;46.562;4.898;2022-07-21T14:51:06;34.00;48.50
7666;DHT22;3875;46.562;4.898;2022-07-21T14:53:32;33.70;48.20
7666;DHT22;3875;46.562;4.898;2022-07-21T14:55:57;33.90;48.40
7666;DHT22;3875;46.562;4.898;2022-07-21T14:58:23;34.20;48.70
7666;DHT22;3875;46.562;4.898;2022-07-21T15:00:49;34.40;47.80
7666;DHT22;3875;46.562;4.898;2022-07-21T15:03:15;34.30;48.00
7666;DHT22;3875;46.562;4.898;2022-07-21T15:05:41;34.20;47.30
7666;DHT22;3875;46.562;4.898;2022-07-21T15:08:07;34.20;48.10
7666;DHT22;3875;46.562;4.898;2022-07-21T15:10:33;34.30;47.40
7666;DHT22;3875;46.562;4.898;2022-07-21T15:12:58;34.10;47.90
7666;DHT22;3875;46.562;4.898;2022-07-21T15:15:24;34.20;47.60
7666;DHT22;3875;46.562;4.898;2022-07-21T15:17:50;34.30;46.90
7666;DHT22;3875;46.562;4.898;2022-07-21T15:20:15;34.30;47.10
7666;DHT22;3875;46.562;4.898;2022-07-21T15:22:41;34.20;46.70
7666;DHT22;3875;46.562;4.898;2022-07-21T15:25:08;34.30;46.90
7666;DHT22;3875;46.562;4.898;2022-07-21T15:27:39;34.10;47.80
7666;DHT22;3875;46.562;4.898;2022-07-21T15:30:09;34.00;47.60
7666;DHT22;3875;46.562;4.898;2022-07-21T15:32:35;34.00;48.10
7666;DHT22;3875;46.562;4.898;2022-07-21T15:35:01;33.90;48.00
7666;DHT22;3875;46.562;4.898;2022-07-21T15:37:27;33.80;48.50
7666;DHT22;3875;46.562;4.898;2022-07-21T15:39:53;33.80;48.30
7666;DHT22;3875;46.562;4.898;2022-07-21T15:42:18;33.80;48.70
7666;DHT22;3875;46.562;4.898;2022-07-21T15:44:44;34.00;48.30
7666;DHT22;3875;46.562;4.898;2022-07-21T15:47:11;34.10;47.70
7666;DHT22;3875;46.562;4.898;2022-07-21T15:49:37;34.00;47.90
7666;DHT22;3875;46.562;4.898;2022-07-21T15:52:04;33.90;47.80
7666;DHT22;3875;46.562;4.898;2022-07-21T15:54:31;34.10;48.70
7666;DHT22;3875;46.562;4.898;2022-07-21T15:56:58;34.20;48.20
7666;DHT22;3875;46.562;4.898;2022-07-21T15:59:23;34.30;48.20
7666;DHT22;3875;46.562;4.898;2022-07-21T16:04:33;34.40;47.80
7666;DHT22;3875;46.562;4.898;2022-07-21T16:06:59;34.40;48.00
7666;DHT22;3875;46.562;4.898;2022-07-21T16:09:26;34.60;47.80
7666;DHT22;3875;46.562;4.898;2022-07-21T16:11:52;34.50;47.80
7666;DHT22;3875;46.562;4.898;2022-07-21T16:14:17;34.70;48.30
7666;DHT22;3875;46.562;4.898;2022-07-21T16:16:43;34.70;48.00
7666;DHT22;3875;46.562;4.898;2022-07-21T16:19:09;34.80;47.60
7666;DHT22;3875;46.562;4.898;2022-07-21T16:21:34;34.70;47.60
7666;DHT22;3875;46.562;4.898;2022-07-21T16:24:00;34.90;47.50
7666;DHT22;3875;46.562;4.898;2022-07-21T16:26:26;34.80;47.50
7666;DHT22;3875;46.562;4.898;2022-07-21T16:28:52;34.70;47.80
7666;DHT22;3875;46.562;4.898;2022-07-21T16:31:18;34.60;47.60
7666;DHT22;3875;46.562;4.898;2022-07-21T16:33:47;34.70;47.60
7666;DHT22;3875;46.562;4.898;2022-07-21T16:36:13;35.10;47.50
7666;DHT22;3875;46.562;4.898;2022-07-21T16:38:39;35.60;46.50
7666;DHT22;3875;46.562;4.898;2022-07-21T16:41:05;36.20;46.00
7666;DHT22;3875;46.562;4.898;2022-07-21T16:43:31;36.80;45.30